Time;durP1;ratioP1;P1;durP2;ratioP2;P2;SDS_P1;SDS_P2;PMS_P1;PMS_P2;Temp;Humidity;BMP_temperature;BMP_pressure;BME280_temperature;BME280_humidity;BME280_pressure;Samples;Min_cycle;Max_cycle;Signal;HPM_P1;HPM_P2
2022/07/17 00:01:12;;;;;;;6.28;5.78;;;;;;;20.14;65.96;99414.28;4974436;28;20047;-78
2022/07/17 00:03:39;;;;;;;6.68;5.70;;;;;;;20.09;66.00;99416.72;4974755;28;20394;-78
2022/07/17 00:06:05;;;;;;;6.30;5.72;;;;;;;20.12;66.37;99420.91;4973071;28;20043;-78
2022/07/17 00:08:32;;;;;;;6.50;5.90;;;;;;;20.14;66.47;99427.84;4991110;28;20049;-78
2022/07/17 00:10:58;;;;;;;10.73;6.18;;;;;;;20.05;65.96;99417.28;4977789;28;20560;-77
2022/07/17 00:13:24;;;;;;;7.78;6.20;;;;;;;19.98;66.18;99422.56;4960533;28;20043;-78
2022/07/17 00:15:50;;;;;;;7.88;6.05;;;;;;;20.02;66.33;99432.03;4976617;28;20406;-79
2022/07/17 00:18:16;;;;;;;9.18;6.47;;;;;;;19.94;66.56;99415.81;4992530;28;20042;-79
2022/07/17 00:20:43;;;;;;;7.00;5.65;;;;;;;20.00;66.80;99428.66;4976245;28;20510;-78
2022/07/17 00:23:10;;;;;;;6.53;5.80;;;;;;;19.94;66.92;99431.25;4977335;28;20502;-79
2022/07/17 00:25:35;;;;;;;6.00;5.40;;;;;;;19.97;66.76;99436.31;4960500;28;20137;-79
2022/07/17 00:28:02;;;;;;;9.52;5.72;;;;;;;19.99;66.87;99434.25;4976469;28;20473;-78
2022/07/17 00:30:28;;;;;;;6.28;5.75;;;;;;;20.02;66.83;99433.91;4976108;28;20066;-78
2022/07/17 00:32:54;;;;;;;6.03;5.40;;;;;;;19.89;67.03;99439.91;4959970;28;20066;-78
2022/07/17 00:35:20;;;;;;;13.15;5.63;;;;;;;19.85;66.84;99444.03;4960062;28;20086;-78
2022/07/17 00:37:48;;;;;;;7.35;5.65;;;;;;;19.90;67.11;99441.63;4977231;28;20043;-79
2022/07/17 00:40:18;;;;;;;7.25;5.82;;;;;;;19.97;67.07;99448.03;4960222;28;20046;-78
2022/07/17 00:42:44;;;;;;;7.68;5.38;;;;;;;20.01;66.88;99437.63;4959759;28;20042;-79
2022/07/17 00:45:11;;;;;;;6.95;5.68;;;;;;;20.04;66.90;99443.53;4975669;28;20154;-78
2022/07/17 00:48:04;;;;;;;10.85;5.53;;;;;;;20.12;66.37;99440.78;4975759;28;20057;-78
2022/07/17 00:50:35;;;;;;;6.18;5.55;;;;;;;20.18;66.46;99439.19;4973808;28;20069;-78
2022/07/17 00:53:01;;;;;;;6.97;5.57;;;;;;;20.24;66.03;99443.06;4975930;28;20043;-78
2022/07/17 00:55:27;;;;;;;6.70;5.45;;;;;;;20.32;65.87;99448.41;4991885;28;20046;-79
2022/07/17 00:57:55;;;;;;;11.68;5.35;;;;;;;20.36;65.66;99447.88;4975676;28;20043;-79
2022/07/17 01:00:22;;;;;;;7.03;5.15;;;;;;;20.43;65.33;99453.41;4975432;28;20474;-77
2022/07/17 01:02:50;;;;;;;5.97;5.40;;;;;;;20.48;65.40;99450.97;4959611;28;20047;-77
2022/07/17 01:05:19;;;;;;;6.20;5.60;;;;;;;20.53;65.03;99436.88;4944005;28;20043;-79
2022/07/17 01:07:45;;;;;;;8.52;5.43;;;;;;;20.52;65.01;99436.03;4975734;28;20047;-78
2022/07/17 01:10:12;;;;;;;6.40;5.10;;;;;;;20.67;64.95;99448.81;4975542;28;20046;-77
2022/07/17 01:12:40;;;;;;;7.43;5.38;;;;;;;20.69;64.57;99449.47;4976583;28;20053;-77
2022/07/17 01:15:06;;;;;;;7.35;5.40;;;;;;;20.69;64.41;99442.16;4975561;28;20047;-76
2022/07/17 01:17:32;;;;;;;11.80;9.02;;;;;;;20.74;64.19;99438.88;4976435;28;20500;-76
2022/07/17 01:19:58;;;;;;;6.57;5.53;;;;;;;20.78;63.87;99442.91;4974755;28;20074;-78
2022/07/17 01:22:25;;;;;;;9.85;5.07;;;;;;;20.77;64.09;99442.06;4959393;28;20051;-77
2022/07/17 01:24:50;;;;;;;13.32;5.47;;;;;;;20.88;64.09;99446.22;4959379;28;20133;-78
2022/07/17 01:27:16;;;;;;;12.02;5.03;;;;;;;20.95;63.91;99440.84;4958844;28;20479;-78
2022/07/17 01:29:42;;;;;;;10.45;4.63;;;;;;;21.01;63.58;99449.09;4959359;28;20090;-77
2022/07/17 01:32:08;;;;;;;10.00;4.70;;;;;;;21.03;63.37;99449.78;4991497;28;20121;-78
2022/07/17 01:34:34;;;;;;;5.78;5.15;;;;;;;21.08;63.19;99458.19;4975081;28;20081;-79
2022/07/17 01:37:00;;;;;;;15.55;5.10;;;;;;;21.10;63.24;99450.72;4975198;28;20081;-77
2022/07/17 01:42:10;;;;;;;7.82;4.78;;;;;;;21.21;63.08;99445.81;4976493;28;20043;-78
2022/07/17 01:44:36;;;;;;;10.88;4.90;;;;;;;21.27;62.96;99453.22;4958933;28;20046;-78
2022/07/17 01:47:03;;;;;;;5.35;4.85;;;;;;;21.29;62.64;99445.72;4974951;28;20073;-77
2022/07/17 01:49:29;;;;;;;8.95;4.80;;;;;;;21.41;62.65;99457.84;4974860;28;20469;-78
2022/07/17 01:51:59;;;;;;;11.20;4.90;;;;;;;21.44;62.25;99468.34;4974878;28;20074;-78
2022/07/17 01:54:29;;;;;;;12.65;5.68;;;;;;;21.51;62.26;99474.72;4990964;28;20089;-78
2022/07/17 01:56:55;;;;;;;5.30;4.80;;;;;;;21.52;62.13;99457.34;4974737;28;20046;-78
2022/07/17 01:59:21;;;;;;;11.23;5.40;;;;;;;21.66;61.74;99471.94;4975747;28;20503;-78
2022/07/17 02:01:46;;;;;;;7.60;4.97;;;;;;;21.74;61.68;99465.53;4975791;28;20133;-77
2022/07/17 02:04:12;;;;;;;5.03;3.97;;;;;;;21.81;61.61;99463.72;4958383;28;20138;-79
2022/07/17 02:06:38;;;;;;;9.90;4.78;;;;;;;21.87;61.47;99465.69;4975874;28;20077;-78
2022/07/17 02:09:04;;;;;;;5.40;4.30;;;;;;;21.91;61.21;99461.53;4974613;28;20097;-76
2022/07/17 02:11:30;;;;;;;13.35;5.53;;;;;;;21.98;61.39;99467.06;4974269;28;20050;-77
2022/07/17 02:13:56;;;;;;;13.25;6.40;;;;;;;21.93;61.08;99459.50;4975639;28;20039;-76
2022/07/17 02:16:22;;;;;;;6.68;4.72;;;;;;;22.03;60.96;99468.16;4974411;28;20050;-77
2022/07/17 02:18:48;;;;;;;16.05;5.75;;;;;;;22.10;60.86;99461.94;4974477;28;20047;-76
2022/07/17 02:21:17;;;;;;;10.30;4.82;;;;;;;22.07;60.94;99469.44;4975149;28;20063;-78
2022/07/17 02:23:43;;;;;;;5.55;4.18;;;;;;;22.02;61.25;99461.03;4958279;28;20054;-77
2022/07/17 02:26:09;;;;;;;6.10;4.68;;;;;;;21.97;61.23;99463.50;4957901;28;20042;-77
2022/07/17 02:28:35;;;;;;;9.32;5.00;;;;;;;21.84;61.88;99452.47;4974023;28;20047;-79
2022/07/17 02:31:01;;;;;;;5.05;4.32;;;;;;;21.91;61.61;99458.00;4957110;28;20544;-80
2022/07/17 02:33:27;;;;;;;6.30;4.13;;;;;;;21.91;61.38;99453.38;4973998;28;20093;-81
2022/07/17 02:35:53;;;;;;;5.13;4.72;;;;;;;22.10;61.51;99461.94;4973853;28;20379;-77
2022/07/17 02:38:18;;;;;;;7.50;4.50;;;;;;;22.25;61.39;99451.88;4974135;28;20050;-80
2022/07/17 02:40:44;;;;;;;5.18;4.22;;;;;;;22.42;61.21;99455.16;4990076;28;20108;-78
2022/07/17 02:43:10;;;;;;;8.43;4.60;;;;;;;22.40;60.62;99449.91;4957857;28;20039;-77
2022/07/17 02:45:36;;;;;;;6.45;4.30;;;;;;;22.50;60.55;99464.03;4973546;28;20050;-77
2022/07/17 02:48:02;;;;;;;8.85;4.47;;;;;;;22.47;60.76;99453.53;4973729;28;20121;-77
2022/07/17 02:50:28;;;;;;;4.93;4.22;;;;;;;22.59;60.36;99459.28;4973717;28;20081;-77
2022/07/17 02:52:54;;;;;;;6.30;4.43;;;;;;;22.64;60.31;99469.56;4974394;28;20039;-80
2022/07/17 02:55:23;;;;;;;5.93;4.68;;;;;;;22.79;60.32;99470.31;4957459;28;20042;-77
2022/07/17 02:57:48;;;;;;;7.03;4.38;;;;;;;22.97;60.06;99469.84;4974162;28;20046;-78
2022/07/17 03:00:17;;;;;;;9.10;4.75;;;;;;;23.12;59.60;99467.00;4974690;28;20129;-78
2022/07/17 03:02:44;;;;;;;9.60;5.65;;;;;;;23.22;59.16;99467.50;4974693;28;20038;-77
2022/07/17 03:05:11;;;;;;;13.68;7.00;;;;;;;23.34;58.91;99468.59;4974746;28;20070;-77
2022/07/17 03:07:37;;;;;;;13.70;9.50;;;;;;;23.45;58.87;99473.47;4973385;28;20465;-77
2022/07/17 03:10:04;;;;;;;12.55;8.18;;;;;;;23.57;58.41;99475.63;4972969;28;20039;-77
2022/07/17 03:12:30;;;;;;;10.77;7.28;;;;;;;23.69;58.32;99476.75;4973162;28;20046;-77
2022/07/17 03:14:56;;;;;;;9.23;7.30;;;;;;;23.71;58.04;99478.22;4956808;28;20046;-78
2022/07/17 03:17:21;;;;;;;8.18;6.78;;;;;;;23.81;57.56;99461.47;4973279;28;20050;-78
2022/07/17 03:19:47;;;;;;;16.50;7.68;;;;;;;23.78;57.67;99472.81;4973008;28;20413;-79
2022/07/17 03:22:13;;;;;;;11.65;7.70;;;;;;;23.85;58.05;99465.47;4973018;28;20078;-77
2022/07/17 03:24:39;;;;;;;8.68;6.80;;;;;;;23.70;58.03;99475.72;4974534;28;20050;-78
2022/07/17 03:27:05;;;;;;;8.25;6.93;;;;;;;23.87;57.84;99474.28;4940942;28;20089;-76
2022/07/17 03:29:30;;;;;;;10.25;6.97;;;;;;;23.89;57.07;99472.22;4973031;28;20057;-78
2022/07/17 03:31:56;;;;;;;15.07;6.82;;;;;;;23.68;57.66;99466.88;4957167;28;20133;-76
2022/07/17 03:34:22;;;;;;;9.60;6.55;;;;;;;23.83;57.92;99467.56;4974342;28;20441;-76
2022/07/17 03:36:48;;;;;;;10.00;6.10;;;;;;;23.96;57.24;99464.88;4974414;28;20155;-77
2022/07/17 03:39:14;;;;;;;10.00;6.80;;;;;;;24.17;57.00;99468.47;4974007;28;20131;-76
2022/07/17 03:41:40;;;;;;;15.45;9.40;;;;;;;24.20;56.87;99476.25;4974339;28;20034;-76
2022/07/17 03:44:06;;;;;;;18.60;10.13;;;;;;;24.20;56.92;99477.09;4979248;28;20137;-76
2022/07/17 03:46:33;;;;;;;15.20;10.00;;;;;;;24.37;57.10;99477.56;4963419;28;20098;-77
2022/07/17 03:48:59;;;;;;;19.17;10.77;;;;;;;24.56;56.85;99475.03;4979115;28;20051;-76
2022/07/17 03:51:25;;;;;;;15.40;8.50;;;;;;;24.59;56.03;99463.69;4963351;28;20049;-78
2022/07/17 03:53:51;;;;;;;9.63;8.70;;;;;;;24.71;56.33;99481.13;4979310;28;20042;-78
2022/07/17 03:56:17;;;;;;;14.85;9.90;;;;;;;24.87;56.23;99464.31;4980349;28;20047;-77
2022/07/17 03:58:43;;;;;;;9.85;7.55;;;;;;;24.99;54.74;99477.34;4979425;28;20042;-79
2022/07/17 04:01:09;;;;;;;11.10;7.00;;;;;;;24.80;54.61;99466.22;4980776;28;20051;-78
2022/07/17 04:03:34;;;;;;;6.55;5.93;;;;;;;24.74;54.72;99467.06;4980274;28;20537;-77
2022/07/17 04:06:00;;;;;;;7.15;5.88;;;;;;;24.76;54.67;99469.59;4981096;28;20046;-78
2022/07/17 04:08:26;;;;;;;7.80;6.07;;;;;;;24.68;54.95;99467.91;4979243;28;20038;-78
2022/07/17 04:10:52;;;;;;;14.60;8.90;;;;;;;24.61;55.13;99464.34;4962864;28;20034;-79
2022/07/17 04:13:18;;;;;;;15.27;10.95;;;;;;;24.60;55.30;99460.78;4980078;28;20133;-77
2022/07/17 04:15:52;;;;;;;15.10;9.65;;;;;;;25.04;54.68;99464.69;4979081;28;20039;-77
2022/07/17 04:18:25;;;;;;;10.10;7.20;;;;;;;25.32;53.16;99458.97;4980461;28;20047;-86
2022/07/17 04:20:53;;;;;;;5.75;5.25;;;;;;;25.56;52.12;99470.25;4962560;28;20072;-78
2022/07/17 04:23:19;;;;;;;10.75;4.88;;;;;;;25.57;52.25;99477.41;4963064;28;20568;-80
2022/07/17 04:25:45;;;;;;;8.65;5.85;;;;;;;25.54;52.22;99472.34;4980091;28;20137;-79
2022/07/17 04:28:12;;;;;;;7.85;5.38;;;;;;;25.58;52.08;99473.63;4979326;28;20042;-79
2022/07/17 04:30:38;;;;;;;5.57;4.95;;;;;;;25.94;51.79;99472.22;4980681;28;20046;-78
2022/07/17 04:33:04;;;;;;;8.27;5.45;;;;;;;26.23;50.50;99482.56;4980626;28;20502;-77
2022/07/17 04:35:30;;;;;;;6.03;5.03;;;;;;;26.32;50.17;99463.94;4980086;28;20039;-78
2022/07/17 04:37:56;;;;;;;6.97;4.60;;;;;;;26.46;49.16;99475.69;4962522;28;20074;-78
2022/07/17 04:40:22;;;;;;;8.40;7.22;;;;;;;26.14;49.25;99468.31;4978739;28;20097;-78
2022/07/17 04:42:48;;;;;;;10.25;6.72;;;;;;;26.12;49.98;99475.06;4980004;28;20386;-78
2022/07/17 04:45:14;;;;;;;9.27;6.82;;;;;;;26.30;50.06;99463.34;4978512;28;20054;-78
2022/07/17 04:47:41;;;;;;;17.13;13.15;;;;;;;26.32;49.97;99474.91;4980693;28;20516;-78
2022/07/17 04:50:09;;;;;;;24.13;15.90;;;;;;;26.46;50.13;99472.94;4978864;28;20109;-78
2022/07/17 04:52:35;;;;;;;18.30;13.10;;;;;;;26.94;49.93;99483.28;4995111;28;20051;-79
2022/07/17 04:55:02;;;;;;;18.75;14.18;;;;;;;27.39;49.19;99477.56;4976155;28;20142;-79
2022/07/17 04:57:29;;;;;;;16.50;14.25;;;;;;;27.77;49.12;99482.84;4977568;28;20046;-79
2022/07/17 04:59:55;;;;;;;19.13;16.00;;;;;;;27.83;47.40;99488.25;4976849;28;20042;-78
2022/07/17 05:02:20;;;;;;;15.00;13.48;;;;;;;27.87;47.64;99479.50;4960355;28;20049;-79
2022/07/17 05:04:47;;;;;;;16.25;13.70;;;;;;;28.08;47.82;99485.34;4977404;28;20121;-79
2022/07/17 05:07:13;;;;;;;23.20;17.75;;;;;;;27.90;47.02;99484.56;4977170;28;20093;-78
2022/07/17 05:09:39;;;;;;;27.13;16.55;;;;;;;27.91;47.31;99473.34;4975018;28;20054;-78
2022/07/17 05:12:05;;;;;;;15.52;9.82;;;;;;;27.92;46.97;99479.69;4991472;28;20100;-78
2022/07/17 05:14:31;;;;;;;17.23;10.00;;;;;;;28.01;46.96;99461.78;4976379;28;20135;-82
2022/07/17 05:16:57;;;;;;;16.70;8.05;;;;;;;27.94;46.22;99488.50;4975751;28;20082;-83
2022/07/17 05:19:23;;;;;;;15.00;7.55;;;;;;;27.78;46.75;99490.81;4976514;28;20054;-83
2022/07/17 05:21:50;;;;;;;14.35;5.63;;;;;;;27.58;47.67;99491.06;4975247;28;20066;-84
2022/07/17 05:24:16;;;;;;;11.77;5.28;;;;;;;27.52;46.37;99504.84;4976326;28;20133;-84
2022/07/17 05:26:42;;;;;;;13.15;5.68;;;;;;;27.05;47.19;99501.75;4991363;28;20053;-82
2022/07/17 05:29:08;;;;;;;7.20;3.85;;;;;;;26.99;47.42;99508.13;4975314;28;20410;-82
2022/07/17 05:31:34;;;;;;;8.35;4.18;;;;;;;26.79;47.63;99506.41;4975917;28;20069;-82
2022/07/17 05:33:59;;;;;;;10.30;4.50;;;;;;;26.77;47.43;99511.28;4976134;28;20045;-82
2022/07/17 05:36:27;;;;;;;9.88;4.10;;;;;;;27.02;47.27;99507.69;4975937;28;20441;-83
2022/07/17 05:38:53;;;;;;;12.48;4.78;;;;;;;27.05;47.91;99499.00;4991059;28;20042;-83
2022/07/17 05:41:19;;;;;;;9.00;4.07;;;;;;;27.30;46.93;99499.81;4990883;28;20142;-85
2022/07/17 05:43:45;;;;;;;14.13;4.30;;;;;;;27.27;46.72;99503.03;4974997;28;20515;-85
2022/07/17 05:46:11;;;;;;;8.02;3.97;;;;;;;27.34;46.92;99495.56;4991462;28;20046;-84
2022/07/17 05:48:37;;;;;;;7.57;3.78;;;;;;;27.56;46.86;99489.59;4990850;28;20051;-84
2022/07/17 05:51:02;;;;;;;11.43;3.92;;;;;;;27.84;46.38;99491.81;4990815;28;20043;-83
2022/07/17 05:53:29;;;;;;;6.40;3.80;;;;;;;28.04;45.80;99489.63;4990408;28;20043;-83
2022/07/17 05:55:54;;;;;;;6.22;3.03;;;;;;;28.06;45.81;99487.50;4990217;28;20046;-82
2022/07/17 05:58:21;;;;;;;12.57;3.25;;;;;;;28.26;45.60;99480.88;4990218;28;20498;-83
2022/07/17 06:00:48;;;;;;;4.13;3.67;;;;;;;28.51;45.03;99486.22;4975598;28;20077;-82
2022/07/17 06:03:15;;;;;;;3.72;3.40;;;;;;;28.61;44.60;99488.38;4975418;28;20046;-81
2022/07/17 06:05:41;;;;;;;5.95;3.45;;;;;;;28.56;44.18;99480.84;4973440;28;20039;-82
2022/07/17 06:08:07;;;;;;;8.35;3.80;;;;;;;28.20;44.76;99477.13;4975439;28;20042;-82
2022/07/17 06:10:33;;;;;;;7.97;3.40;;;;;;;28.45;45.22;99476.16;4990273;28;20039;-81
2022/07/17 06:12:59;;;;;;;4.72;3.22;;;;;;;28.64;44.11;99474.16;4990645;28;20125;-83
2022/07/17 06:15:25;;;;;;;9.27;3.58;;;;;;;28.98;44.14;99462.38;4990437;28;20069;-83
2022/07/17 06:17:52;;;;;;;6.28;3.45;;;;;;;29.43;43.03;99469.13;4974266;28;20126;-85
2022/07/17 06:20:19;;;;;;;4.78;2.85;;;;;;;29.46;42.58;99479.66;4973989;28;20065;-83
2022/07/17 06:22:45;;;;;;;6.20;3.10;;;;;;;29.56;42.61;99485.38;4990391;28;20061;-82
2022/07/17 06:25:12;;;;;;;4.50;3.00;;;;;;;29.57;42.23;99476.06;4974319;28;20047;-83
2022/07/17 06:27:42;;;;;;;4.43;3.45;;;;;;;29.64;42.50;99485.03;4970416;28;20055;-82
2022/07/17 06:30:13;;;;;;;5.65;3.20;;;;;;;29.89;42.14;99484.72;4970830;28;20043;-82
2022/07/17 06:32:39;;;;;;;6.28;3.92;;;;;;;30.01;41.81;99484.66;4939016;29;20051;-82
2022/07/17 06:35:06;;;;;;;4.38;3.00;;;;;;;29.89;41.86;99484.72;4970885;28;20455;-81
2022/07/17 06:37:32;;;;;;;7.57;3.30;;;;;;;30.18;41.38;99482.81;4956167;28;20039;-82
2022/07/17 06:39:58;;;;;;;3.50;3.20;;;;;;;30.59;41.08;99488.22;4955524;29;20051;-82
2022/07/17 06:42:24;;;;;;;3.97;3.28;;;;;;;30.92;40.29;99487.41;4955555;28;20079;-82
2022/07/17 06:44:50;;;;;;;3.70;3.00;;;;;;;31.15;39.88;99473.41;4954195;29;20052;-82
2022/07/17 06:47:16;;;;;;;5.28;3.17;;;;;;;31.24;39.62;99459.97;4970626;28;20046;-82
2022/07/17 06:49:43;;;;;;;8.15;3.30;;;;;;;31.13;39.53;99464.53;4955404;28;20039;-83
2022/07/17 06:52:09;;;;;;;3.92;3.22;;;;;;;30.63;39.34;99462.63;4970090;28;20071;-83
2022/07/17 06:54:34;;;;;;;6.00;3.38;;;;;;;29.65;41.34;99439.88;4955294;28;20074;-82
2022/07/17 06:57:01;;;;;;;6.22;3.35;;;;;;;29.87;41.50;99461.25;4955231;28;20047;-83
2022/07/17 06:59:27;;;;;;;3.45;3.15;;;;;;;29.70;41.10;99453.75;4955022;28;20415;-82
2022/07/17 07:01:52;;;;;;;3.58;3.28;;;;;;;29.89;40.88;99453.56;4938127;28;20050;-82
2022/07/17 07:04:18;;;;;;;6.25;3.65;;;;;;;29.64;41.13;99437.34;4973642;28;20046;-82
2022/07/17 07:06:44;;;;;;;4.30;3.50;;;;;;;30.02;41.41;99450.53;4973245;28;20046;-82
2022/07/17 07:09:11;;;;;;;3.72;3.42;;;;;;;29.87;41.31;99459.34;4973449;28;20065;-82
2022/07/17 07:11:38;;;;;;;4.82;3.47;;;;;;;30.10;41.16;99468.56;4972749;28;20053;-81
2022/07/17 07:14:04;;;;;;;4.47;3.50;;;;;;;30.21;40.79;99454.75;4973138;28;20047;-83
2022/07/17 07:16:32;;;;;;;4.47;3.40;;;;;;;30.39;41.09;99456.47;4972603;28;20062;-81
2022/07/17 07:18:58;;;;;;;6.63;3.42;;;;;;;30.51;41.13;99459.13;4972793;28;20065;-83
2022/07/17 07:21:26;;;;;;;3.90;3.40;;;;;;;30.88;40.34;99472.41;4956746;28;20490;-81
2022/07/17 07:23:55;;;;;;;4.30;3.58;;;;;;;31.35;39.40;99467.34;4990201;28;20047;-83
2022/07/17 07:26:21;;;;;;;8.25;3.63;;;;;;;31.30;39.19;99467.28;4974499;28;20054;-81
2022/07/17 07:28:47;;;;;;;6.05;3.53;;;;;;;30.78;40.13;99461.25;4957032;28;20097;-84
2022/07/17 07:31:13;;;;;;;4.00;3.60;;;;;;;30.21;40.97;99460.28;4989235;28;20043;-78
2022/07/17 07:33:39;;;;;;;5.80;3.35;;;;;;;30.73;40.67;99450.94;4973908;28;20051;-80
2022/07/17 07:36:05;;;;;;;13.07;3.95;;;;;;;31.70;39.59;99460.59;4973900;28;20394;-80
2022/07/17 07:38:31;;;;;;;4.05;3.20;;;;;;;32.31;38.68;99454.91;4973789;28;20039;-78
2022/07/17 07:40:57;;;;;;;11.65;3.58;;;;;;;32.53;38.89;99452.91;4970998;28;20544;-78
2022/07/17 07:43:23;;;;;;;7.35;3.38;;;;;;;32.89;37.43;99458.72;4974059;28;20051;-77
2022/07/17 07:45:50;;;;;;;7.05;3.20;;;;;;;32.61;37.51;99455.22;4973473;28;20047;-78
2022/07/17 07:48:16;;;;;;;6.93;2.95;;;;;;;32.68;37.37;99454.13;4973120;28;20051;-78
2022/07/17 07:50:41;;;;;;;4.47;3.10;;;;;;;32.66;37.53;99448.88;4973482;28;20490;-76
2022/07/17 07:53:07;;;;;;;8.18;3.08;;;;;;;32.61;37.13;99444.16;4956177;28;20089;-80
2022/07/17 07:55:33;;;;;;;7.88;3.05;;;;;;;31.59;38.43;99456.03;4972331;28;20041;-79
2022/07/17 07:58:09;;;;;;;6.13;3.60;;;;;;;30.99;39.43;99454.09;4972334;28;20233;-78
2022/07/17 08:00:35;;;;;;;6.07;2.88;;;;;;;30.84;39.32;99443.66;4972037;28;20046;-80
2022/07/17 08:03:01;;;;;;;3.67;3.10;;;;;;;31.14;38.71;99446.88;4988795;28;20039;-79
2022/07/17 08:05:27;;;;;;;12.25;3.08;;;;;;;31.67;38.05;99442.63;4973208;28;20375;-79
2022/07/17 08:07:53;;;;;;;3.40;3.10;;;;;;;31.82;37.81;99441.97;4988725;28;20506;-79
2022/07/17 08:10:19;;;;;;;5.07;3.10;;;;;;;31.76;38.15;99439.41;4973361;28;20099;-79
2022/07/17 08:12:45;;;;;;;4.80;3.13;;;;;;;31.72;38.44;99446.53;4956131;28;20113;-80
2022/07/17 08:15:11;;;;;;;4.95;3.13;;;;;;;31.72;38.18;99446.53;4988704;28;20086;-82
2022/07/17 08:17:37;;;;;;;6.03;3.20;;;;;;;31.31;38.99;99451.56;4956363;28;20053;-79
2022/07/17 08:20:03;;;;;;;6.32;3.22;;;;;;;31.29;39.22;99453.69;4973677;28;20059;-80
2022/07/17 08:22:29;;;;;;;13.20;3.25;;;;;;;31.14;39.04;99446.88;4973420;28;20061;-79
2022/07/17 08:24:55;;;;;;;3.72;3.13;;;;;;;31.20;39.48;99453.31;4973421;28;20039;-80
2022/07/17 08:27:22;;;;;;;7.93;3.10;;;;;;;31.12;39.58;99453.75;4955713;28;20082;-80
2022/07/17 08:29:47;;;;;;;7.60;3.13;;;;;;;31.60;39.00;99455.81;4974578;28;20054;-79
2022/07/17 08:32:13;;;;;;;6.55;2.90;;;;;;;31.97;38.31;99444.09;4977100;28;20100;-80
2022/07/17 08:34:39;;;;;;;7.13;3.30;;;;;;;32.38;37.44;99447.22;4976033;28;20062;-80
2022/07/17 08:37:05;;;;;;;3.90;3.10;;;;;;;31.72;37.71;99458.41;4977307;28;20078;-79
2022/07/17 08:39:31;;;;;;;4.97;2.92;;;;;;;31.75;38.05;99441.31;4959814;28;20181;-79
2022/07/17 08:41:57;;;;;;;4.07;2.97;;;;;;;31.90;37.83;99455.34;4976041;28;20490;-80
2022/07/17 08:44:23;;;;;;;4.25;3.10;;;;;;;31.87;37.44;99449.50;4975714;28;20464;-79
2022/07/17 08:46:53;;;;;;;5.93;3.10;;;;;;;31.60;38.19;99447.50;4975337;28;20070;-80
2022/07/17 08:49:21;;;;;;;6.47;3.15;;;;;;;31.83;37.00;99421.50;4959798;28;20039;-82
2022/07/17 08:51:48;;;;;;;5.97;3.20;;;;;;;32.01;37.44;99434.19;4991574;28;20049;-79
2022/07/17 08:54:14;;;;;;;7.85;2.90;;;;;;;31.99;36.75;99441.88;4959570;28;20061;-79
2022/07/17 08:56:40;;;;;;;3.75;2.78;;;;;;;32.11;36.38;99461.06;4975607;28;20506;-80
2022/07/17 08:59:06;;;;;;;3.67;2.60;;;;;;;31.93;36.17;99465.03;4991523;28;20046;-79
2022/07/17 09:01:32;;;;;;;7.82;3.30;;;;;;;32.34;36.00;99448.84;4976546;28;20149;-80
2022/07/17 09:04:08;;;;;;;3.58;2.70;;;;;;;33.05;34.69;99454.16;4975566;28;20042;-80
2022/07/17 09:06:35;;;;;;;6.93;2.78;;;;;;;32.82;34.93;99455.34;4975698;28;20045;-79
2022/07/17 09:09:13;;;;;;;5.78;2.63;;;;;;;33.18;35.10;99450.09;4975515;28;20126;-80
2022/07/17 09:11:45;;;;;;;6.65;2.55;;;;;;;33.34;34.75;99440.75;4975292;28;20046;-80
2022/07/17 09:14:11;;;;;;;4.53;2.63;;;;;;;33.58;34.46;99468.88;4976948;28;20050;-81
2022/07/17 09:16:52;;;;;;;4.32;3.10;;;;;;;32.54;35.76;99449.06;4976416;28;20398;-81
2022/07/17 09:19:30;;;;;;;6.65;3.08;;;;;;;32.98;35.32;99454.38;4942861;28;20043;-78
2022/07/17 09:22:06;;;;;;;;;;;;;;;32.75;35.44;99460.28;4975287;28;20063;-80
2022/07/17 09:24:42;;;;;;;2.80;2.53;;;;;;;32.67;35.26;99458.84;4975950;28;19977;-78
2022/07/17 09:27:08;;;;;;;7.75;2.92;;;;;;;32.82;35.33;99461.72;4958849;28;20047;-78
2022/07/17 09:29:48;;;;;;;11.80;2.92;;;;;;;33.07;35.42;99446.44;4974842;28;20531;-78
2022/07/17 09:32:18;;;;;;;9.52;2.88;;;;;;;32.64;35.63;99454.66;4975137;28;20457;-80
2022/07/17 09:34:49;;;;;;;3.28;2.67;;;;;;;32.31;36.32;99443.84;4975048;28;20043;-80
2022/07/17 09:37:15;;;;;;;5.18;3.13;;;;;;;32.08;36.76;99456.94;4975903;28;20134;-80
2022/07/17 09:39:42;;;;;;;6.53;2.60;;;;;;;32.35;36.29;99445.00;4990803;28;20053;-80
2022/07/17 09:42:09;;;;;;;5.35;2.75;;;;;;;32.90;35.96;99435.47;4975565;28;20137;-81
2022/07/17 09:44:34;;;;;;;8.55;3.00;;;;;;;32.95;36.39;99449.41;4942697;28;20049;-80
2022/07/17 09:47:02;;;;;;;4.50;2.72;;;;;;;33.20;35.19;99443.16;4975998;28;20397;-78
2022/07/17 09:49:28;;;;;;;2.92;2.38;;;;;;;32.63;35.95;99447.47;4958659;28;20081;-80
2022/07/17 09:51:54;;;;;;;3.78;2.58;;;;;;;32.74;36.06;99447.56;4975911;28;20078;-81
2022/07/17 09:54:22;;;;;;;8.55;2.75;;;;;;;33.00;35.67;99456.91;4990913;28;20054;-80
2022/07/17 09:56:51;;;;;;;3.75;2.60;;;;;;;32.35;36.54;99440.31;4974574;28;20137;-80
2022/07/17 09:59:18;;;;;;;4.00;2.60;;;;;;;32.55;36.38;99449.91;4974453;28;20042;-80
2022/07/17 10:01:48;;;;;;;5.13;2.70;;;;;;;33.19;35.23;99448.97;4974422;28;20059;-83
2022/07/17 10:04:16;;;;;;;4.78;2.72;;;;;;;33.15;34.09;99437.59;4976028;28;20160;-79
2022/07/17 10:06:43;;;;;;;6.20;2.90;;;;;;;32.91;33.98;99439.06;4958220;28;20517;-80
2022/07/17 10:09:09;;;;;;;8.13;2.53;;;;;;;32.46;35.10;99446.78;4975722;28;20141;-80
2022/07/17 10:11:37;;;;;;;7.53;2.60;;;;;;;31.92;36.01;99432.97;4975399;28;20046;-79
2022/07/17 10:14:13;;;;;;;6.10;2.63;;;;;;;32.01;35.54;99442.47;4990036;28;20050;-80
2022/07/17 10:16:39;;;;;;;5.40;2.55;;;;;;;32.68;35.44;99432.00;4957977;28;20043;-80
2022/07/17 10:19:44;;;;;;;7.68;2.65;;;;;;;33.47;34.68;99440.25;4973594;28;20053;-80
2022/07/17 10:22:10;;;;;;;4.38;2.30;;;;;;;33.68;33.89;99437.59;4966360;28;20141;-79
2022/07/17 10:24:49;;;;;;;3.88;2.20;;;;;;;33.58;32.67;99436.44;4990236;28;20452;-80
2022/07/17 10:27:36;;;;;;;8.60;2.40;;;;;;;34.10;31.90;99429.09;4990142;28;20047;-79
2022/07/17 10:30:05;;;;;;;4.00;2.40;;;;;;;33.99;32.45;99442.13;4974056;28;20093;-81
2022/07/17 10:32:32;;;;;;;7.18;2.40;;;;;;;34.48;32.21;99422.19;4941701;28;20053;-80
2022/07/17 10:34:58;;;;;;;2.38;2.15;;;;;;;34.16;32.40;99432.75;4989912;28;20039;-80
2022/07/17 10:37:33;;;;;;;7.05;2.53;;;;;;;33.71;32.80;99435.09;4973785;28;20046;-80
2022/07/17 10:40:17;;;;;;;5.82;2.50;;;;;;;34.29;32.11;99423.84;4973764;28;20050;-80
2022/07/17 10:43:00;;;;;;;5.47;2.50;;;;;;;35.42;30.40;99425.38;4974932;28;20050;-81
2022/07/17 10:45:34;;;;;;;9.20;2.70;;;;;;;35.95;28.97;99416.50;4941419;28;20038;-82
2022/07/17 10:48:05;;;;;;;5.20;2.00;;;;;;;36.15;27.90;99415.56;4973831;28;20065;-82
2022/07/17 10:50:35;;;;;;;2.97;2.22;;;;;;;35.58;28.79;99422.53;4973704;28;20549;-82
2022/07/17 10:53:07;;;;;;;6.28;2.22;;;;;;;34.74;30.08;99414.69;4973275;28;20395;-80
2022/07/17 10:55:35;;;;;;;4.90;2.00;;;;;;;34.79;29.73;99422.19;4957175;28;20043;-80
2022/07/17 10:58:02;;;;;;;4.72;2.10;;;;;;;34.60;30.39;99410.00;4973453;28;20097;-81
2022/07/17 11:00:29;;;;;;;4.18;2.70;;;;;;;33.99;31.96;99413.56;4990014;28;20081;-82
2022/07/17 11:02:54;;;;;;;2.53;2.17;;;;;;;33.05;32.86;99415.38;4974837;28;20583;-80
2022/07/17 11:05:21;;;;;;;4.53;1.85;;;;;;;32.74;33.19;99415.16;4989205;28;20132;-80
2022/07/17 11:07:59;;;;;;;6.05;2.30;;;;;;;32.53;33.97;99416.94;4974390;28;20051;-79
2022/07/17 11:10:27;;;;;;;3.53;2.30;;;;;;;32.53;33.62;99419.72;4957060;28;20043;-80
2022/07/17 11:12:55;;;;;;;2.90;2.20;;;;;;;32.86;33.46;99412.19;4973094;28;20792;-80
2022/07/17 11:15:22;;;;;;;4.20;2.20;;;;;;;33.13;33.71;99421.25;4973284;28;20043;-80
2022/07/17 11:17:49;;;;;;;5.93;2.42;;;;;;;33.05;34.06;99421.75;4972930;28;20105;-78
2022/07/17 11:20:16;;;;;;;8.90;2.50;;;;;;;33.19;34.12;99407.44;4989104;28;20062;-80
2022/07/17 11:22:42;;;;;;;3.00;2.60;;;;;;;34.10;31.96;99406.09;4974209;28;20047;-80
2022/07/17 11:25:09;;;;;;;8.05;2.55;;;;;;;33.77;32.62;99416.53;4956685;28;20043;-80
2022/07/17 11:27:38;;;;;;;4.45;2.33;;;;;;;34.30;32.55;99408.88;4974163;28;20055;-80
2022/07/17 11:30:04;;;;;;;3.88;2.45;;;;;;;35.21;30.96;99399.63;4974051;28;20089;-79
2022/07/17 11:32:36;;;;;;;7.25;2.42;;;;;;;36.05;29.50;99390.59;4956548;28;20130;-81
2022/07/17 11:35:02;;;;;;;4.38;2.40;;;;;;;36.43;28.88;99400.84;4957114;28;20178;-80